Time;durP1;ratioP1;P1;durP2;ratioP2;P2;SDS_P1;SDS_P2;PMS_P1;PMS_P2;Temp;Humidity;BMP_temperature;BMP_pressure;BME280_temperature;BME280_humidity;BME280_pressure;Samples;Min_cycle;Max_cycle;Signal;HPM_P1;HPM_P2
2022/09/07 00:00:53;;;;;;;0.00;0.00;;;;;;;;;;5021333;28;20025;-76
2022/09/07 00:03:20;;;;;;;0.00;0.00;;;;;;;;;;5020258;28;20032;-76
2022/09/07 00:05:48;;;;;;;0.10;0.10;;;;;;;;;;5016098;28;20056;-76
2022/09/07 00:08:15;;;;;;;0.00;0.00;;;;;;;;;;5016387;28;20017;-76
2022/09/07 00:10:42;;;;;;;32.70;3.20;;;;;;;;;;5020255;28;20113;-75
2022/09/07 00:13:09;;;;;;;0.00;0.00;;;;;;;;;;5030139;28;20029;-75
2022/09/07 00:15:39;;;;;;;0.00;0.00;;;;;;;;;;5022249;28;20022;-75
2022/09/07 00:18:05;;;;;;;0.00;0.00;;;;;;;;;;5020375;28;21420;-75
2022/09/07 00:20:32;;;;;;;0.00;0.00;;;;;;;;;;5025174;28;20040;-75
2022/09/07 00:22:58;;;;;;;0.30;0.30;;;;;;;;;;5020693;28;20065;-75
2022/09/07 00:25:24;;;;;;;0.00;0.00;;;;;;;;;;5021397;28;20056;-75
2022/09/07 00:27:51;;;;;;;0.00;0.00;;;;;;;;;;5017266;28;20097;-75
2022/09/07 00:30:17;;;;;;;0.00;0.00;;;;;;;;;;5017227;28;20022;-76
2022/09/07 00:32:43;;;;;;;0.00;0.00;;;;;;;;;;5015209;28;20446;-76
2022/09/07 00:35:11;;;;;;;0.00;0.00;;;;;;;;;;5028687;28;20108;-75
2022/09/07 00:37:38;;;;;;;0.00;0.00;;;;;;;;;;5026340;28;20598;-76
2022/09/07 00:40:04;;;;;;;0.00;0.00;;;;;;;;;;5022727;28;20040;-75
2022/09/07 00:42:31;;;;;;;0.10;0.10;;;;;;;;;;5025900;28;20467;-75
2022/09/07 00:45:03;;;;;;;0.00;0.00;;;;;;;;;;5032797;28;20053;-75
2022/09/07 00:47:49;;;;;;;0.00;0.00;;;;;;;;;;5030847;28;20109;-75
2022/09/07 00:50:28;;;;;;;0.00;0.00;;;;;;;;;;5013917;28;20867;-75
2022/09/07 00:52:59;;;;;;;0.00;0.00;;;;;;;;;;5014712;28;20022;-76
2022/09/07 00:55:26;;;;;;;0.00;0.00;;;;;;;;;;5022527;28;20481;-74
2022/09/07 00:57:54;;;;;;;0.00;0.00;;;;;;;;;;5021469;28;20042;-75
2022/09/07 01:00:21;;;;;;;0.00;0.00;;;;;;;;;;5031269;28;20030;-75
2022/09/07 01:02:49;;;;;;;0.00;0.00;;;;;;;;;;5024619;27;20430;-74
2022/09/07 01:05:19;;;;;;;0.00;0.00;;;;;;;;;;5018209;28;20037;-75
2022/09/07 01:07:45;;;;;;;0.00;0.00;;;;;;;;;;5015519;28;20030;-75
2022/09/07 01:10:13;;;;;;;0.00;0.00;;;;;;;;;;5029461;28;20029;-77
2022/09/07 01:12:39;;;;;;;0.00;0.00;;;;;;;;;;5014495;28;20094;-77
2022/09/07 01:15:06;;;;;;;0.80;0.80;;;;;;;;;;5019781;28;20116;-77
2022/09/07 01:17:32;;;;;;;0.00;0.00;;;;;;;;;;5016947;28;20046;-77
2022/09/07 01:20:16;;;;;;;0.00;0.00;;;;;;;;;;5014981;28;20097;-77
2022/09/07 01:23:01;;;;;;;0.38;0.38;;;;;;;;;;5016909;28;20030;-77
2022/09/07 01:25:46;;;;;;;0.00;0.00;;;;;;;;;;5012729;28;20121;-76
2022/09/07 01:28:21;;;;;;;0.00;0.00;;;;;;;;;;5028553;28;20017;-77
2022/09/07 01:31:10;;;;;;;0.00;0.00;;;;;;;;;;5014142;28;20022;-77
2022/09/07 01:33:43;;;;;;;0.00;0.00;;;;;;;;;;5018778;28;20025;-77
2022/09/07 01:36:28;;;;;;;0.00;0.00;;;;;;;;;;5017365;28;20018;-77
2022/09/07 01:38:56;;;;;;;0.00;0.00;;;;;;;;;;5023954;28;20091;-77
2022/09/07 01:41:22;;;;;;;0.00;0.00;;;;;;;;;;5025430;28;20062;-77
2022/09/07 01:43:48;;;;;;;0.00;0.00;;;;;;;;;;5019804;28;20029;-77
2022/09/07 01:46:18;;;;;;;0.00;0.00;;;;;;;;;;5031305;27;20021;-77
2022/09/07 01:48:45;;;;;;;0.00;0.00;;;;;;;;;;5027469;28;20036;-78
2022/09/07 01:51:12;;;;;;;0.00;0.00;;;;;;;;;;5069818;27;20064;-76
2022/09/07 01:53:41;;;;;;;0.00;0.00;;;;;;;;;;5058069;27;20507;-77
2022/09/07 01:56:12;;;;;;;0.00;0.00;;;;;;;;;;5033285;27;20037;-77
2022/09/07 01:58:53;;;;;;;0.47;0.47;;;;;;;;;;5056778;27;20015;-77
2022/09/07 02:01:24;;;;;;;0.00;0.00;;;;;;;;;;5063162;28;20020;-77
2022/09/07 02:04:00;;;;;;;0.00;0.00;;;;;;;;;;5035559;28;20471;-77
2022/09/07 02:06:42;;;;;;;0.03;0.03;;;;;;;;;;5032290;28;20028;-77
2022/09/07 02:09:14;;;;;;;0.00;0.00;;;;;;;;;;5039412;28;20061;-76
2022/09/07 02:11:45;;;;;;;0.00;0.00;;;;;;;;;;5050949;28;20029;-77
2022/09/07 02:14:12;;;;;;;0.00;0.00;;;;;;;;;;5048007;28;20408;-76
2022/09/07 02:16:42;;;;;;;0.00;0.00;;;;;;;;;;5056164;28;20030;-77
2022/09/07 02:19:10;;;;;;;0.00;0.00;;;;;;;;;;5018671;28;20028;-77
2022/09/07 02:21:49;;;;;;;0.00;0.00;;;;;;;;;;5016958;28;20108;-77
2022/09/07 02:24:19;;;;;;;0.10;0.10;;;;;;;;;;5015000;28;20464;-77
2022/09/07 02:26:47;;;;;;;0.00;0.00;;;;;;;;;;4971085;28;20121;-78
2022/09/07 02:29:14;;;;;;;0.15;0.15;;;;;;;;;;4972717;28;20027;-77
2022/09/07 02:31:40;;;;;;;0.15;0.15;;;;;;;;;;4978703;28;20037;-78
2022/09/07 02:34:07;;;;;;;0.08;0.08;;;;;;;;;;5010420;28;20023;-77
2022/09/07 02:36:36;;;;;;;0.00;0.00;;;;;;;;;;4997545;28;20452;-77
2022/09/07 02:39:02;;;;;;;0.00;0.00;;;;;;;;;;4981568;28;20101;-77
2022/09/07 02:41:32;;;;;;;0.00;0.00;;;;;;;;;;4981300;28;20041;-77
2022/09/07 02:43:59;;;;;;;0.00;0.00;;;;;;;;;;4976425;28;20106;-77
2022/09/07 02:46:38;;;;;;;0.00;0.00;;;;;;;;;;4980336;28;20038;-77
2022/09/07 02:49:13;;;;;;;0.13;0.13;;;;;;;;;;4975659;28;20026;-77
2022/09/07 02:51:42;;;;;;;0.15;0.15;;;;;;;;;;4981159;28;20457;-78
2022/09/07 02:54:32;;;;;;;0.05;0.05;;;;;;;;;;4980180;28;20030;-77
2022/09/07 02:57:07;;;;;;;0.05;0.05;;;;;;;;;;4971994;28;20041;-77
2022/09/07 02:59:34;;;;;;;0.00;0.00;;;;;;;;;;4978437;28;20027;-77
2022/09/07 03:02:00;;;;;;;5.65;3.63;;;;;;;;;;4986928;28;20051;-77
2022/09/07 03:04:26;;;;;;;0.32;0.32;;;;;;;;;;4982880;28;20083;-78
2022/09/07 03:07:02;;;;;;;0.13;0.13;;;;;;;;;;4997947;28;20039;-77
2022/09/07 03:09:31;;;;;;;0.20;0.20;;;;;;;;;;4986626;28;20491;-77
2022/09/07 03:11:57;;;;;;;5.25;3.17;;;;;;;;;;4981039;28;20541;-77
2022/09/07 03:14:25;;;;;;;0.70;0.70;;;;;;;;;;4980217;28;20072;-77
2022/09/07 03:16:53;;;;;;;3.80;3.05;;;;;;;;;;4982306;28;20412;-78
2022/09/07 03:19:19;;;;;;;0.32;0.32;;;;;;;;;;4978980;28;20026;-78
2022/09/07 03:21:46;;;;;;;2.78;2.58;;;;;;;;;;4989655;28;20023;-77
2022/09/07 03:24:12;;;;;;;7.43;5.82;;;;;;;;;;4974112;28;20496;-76
2022/09/07 03:26:40;;;;;;;0.32;0.32;;;;;;;;;;5015283;28;20475;-77
2022/09/07 03:29:06;;;;;;;0.70;0.70;;;;;;;;;;5020556;27;20121;-76
2022/09/07 03:31:33;;;;;;;0.03;0.03;;;;;;;;;;5017008;28;20033;-78
2022/09/07 03:33:59;;;;;;;46.97;4.28;;;;;;;;;;5021252;27;20476;-77
2022/09/07 03:36:26;;;;;;;1.83;1.73;;;;;;;;;;5015869;28;20105;-77
2022/09/07 03:38:53;;;;;;;0.98;0.65;;;;;;;;;;5021165;28;20515;-76
2022/09/07 03:41:19;;;;;;;3.60;3.30;;;;;;;;;;5021322;28;20055;-76
2022/09/07 03:43:45;;;;;;;5.75;1.88;;;;;;;;;;5026631;27;20466;-78
2022/09/07 03:46:14;;;;;;;10.32;1.52;;;;;;;;;;5014629;28;20077;-76
2022/09/07 03:48:41;;;;;;;13.13;5.07;;;;;;;;;;5015434;28;20030;-77
2022/09/07 03:51:08;;;;;;;0.63;0.60;;;;;;;;;;5020375;28;20036;-77
2022/09/07 03:53:36;;;;;;;2.90;2.65;;;;;;;;;;5019429;28;20062;-76
2022/09/07 03:56:07;;;;;;;4.07;2.75;;;;;;;;;;5015026;28;20024;-77
2022/09/07 03:58:34;;;;;;;0.20;0.20;;;;;;;;;;5011541;28;20195;-77
2022/09/07 04:01:04;;;;;;;7.30;1.70;;;;;;;;;;5010587;28;20141;-78
2022/09/07 04:03:30;;;;;;;0.70;0.20;;;;;;;;;;5015865;28;20030;-77
2022/09/07 04:06:01;;;;;;;0.50;0.40;;;;;;;;;;5016970;28;20051;-78
2022/09/07 04:08:28;;;;;;;2.28;1.08;;;;;;;;;;5016606;28;20032;-77
2022/09/07 04:10:58;;;;;;;13.68;12.60;;;;;;;;;;5018739;28;20499;-78
2022/09/07 04:13:25;;;;;;;2.60;1.27;;;;;;;;;;5017551;27;20041;-77
2022/09/07 04:15:52;;;;;;;1.98;1.08;;;;;;;;;;5011294;28;20604;-78
2022/09/07 04:18:18;;;;;;;0.32;0.32;;;;;;;;;;5012599;28;20030;-78
2022/09/07 04:20:45;;;;;;;0.93;0.93;;;;;;;;;;5016605;28;20029;-77
2022/09/07 04:23:11;;;;;;;2.45;0.80;;;;;;;;;;5012698;28;20022;-77
2022/09/07 04:25:38;;;;;;;1.30;0.70;;;;;;;;;;5014093;27;20555;-77
2022/09/07 04:28:04;;;;;;;3.05;1.80;;;;;;;;;;5017733;27;20038;-77
2022/09/07 04:30:34;;;;;;;3.03;0.75;;;;;;;;;;5019232;27;20029;-79
2022/09/07 04:33:01;;;;;;;0.75;0.70;;;;;;;;;;5027002;27;20087;-79
2022/09/07 04:35:27;;;;;;;1.75;1.25;;;;;;;;;;4999980;28;20470;-77
2022/09/07 04:37:54;;;;;;;0.17;0.17;;;;;;;;;;5028059;27;20414;-78
2022/09/07 04:40:21;;;;;;;0.80;0.80;;;;;;;;;;5035712;27;20132;-78
2022/09/07 04:42:47;;;;;;;1.17;0.20;;;;;;;;;;5017025;27;20087;-79
2022/09/07 04:45:13;;;;;;;2.13;0.52;;;;;;;;;;5029994;27;20033;-79
2022/09/07 04:47:40;;;;;;;3.28;0.75;;;;;;;;;;5024340;27;20080;-78
2022/09/07 04:50:07;;;;;;;0.00;0.00;;;;;;;;;;5019291;27;20606;-79
2022/09/07 04:52:33;;;;;;;3.05;2.78;;;;;;;;;;5040046;27;20033;-78
2022/09/07 04:54:59;;;;;;;0.00;0.00;;;;;;;;;;5022636;27;20034;-78
2022/09/07 04:57:26;;;;;;;0.20;0.20;;;;;;;;;;5019667;27;20043;-77
2022/09/07 04:59:52;;;;;;;0.00;0.00;;;;;;;;;;5025908;27;20430;-77
2022/09/07 05:02:18;;;;;;;1.48;0.40;;;;;;;;;;5044364;27;20406;-78
2022/09/07 05:04:45;;;;;;;0.17;0.10;;;;;;;;;;5034917;27;20077;-78
2022/09/07 05:07:11;;;;;;;0.10;0.10;;;;;;;;;;5017602;27;20072;-78
2022/09/07 05:09:38;;;;;;;0.20;0.20;;;;;;;;;;5016082;27;20425;-78
2022/09/07 05:12:04;;;;;;;0.08;0.08;;;;;;;;;;5023242;27;20071;-77
2022/09/07 05:14:30;;;;;;;7.22;2.83;;;;;;;;;;5022535;27;20426;-78
2022/09/07 05:16:57;;;;;;;0.10;0.10;;;;;;;;;;5022296;27;20453;-77
2022/09/07 05:19:23;;;;;;;10.02;1.40;;;;;;;;;;5024289;27;20045;-78
2022/09/07 05:21:50;;;;;;;0.57;0.57;;;;;;;;;;5010107;28;20390;-78
2022/09/07 05:24:16;;;;;;;0.00;0.00;;;;;;;;;;5033502;27;20120;-77
2022/09/07 05:26:42;;;;;;;3.30;1.13;;;;;;;;;;5018990;27;20058;-77
2022/09/07 05:29:09;;;;;;;0.00;0.00;;;;;;;;;;5011644;28;20375;-77
2022/09/07 05:31:36;;;;;;;0.45;0.28;;;;;;;;;;5013799;28;20553;-77
2022/09/07 05:34:02;;;;;;;2.50;0.30;;;;;;;;;;5024144;27;20069;-78
2022/09/07 05:36:29;;;;;;;3.95;0.45;;;;;;;;;;5040917;27;20034;-77
2022/09/07 05:38:58;;;;;;;0.15;0.13;;;;;;;;;;5044106;27;20027;-78
2022/09/07 05:41:25;;;;;;;0.00;0.00;;;;;;;;;;5019754;27;20630;-77
2022/09/07 05:43:52;;;;;;;2.72;1.85;;;;;;;;;;5021107;27;20387;-77
2022/09/07 05:46:19;;;;;;;3.22;2.22;;;;;;;;;;5016333;27;20033;-78
2022/09/07 05:48:45;;;;;;;1.17;1.17;;;;;;;;;;5013516;28;20752;-78
2022/09/07 05:51:12;;;;;;;0.40;0.40;;;;;;;;;;5013607;28;20082;-77
2022/09/07 05:53:40;;;;;;;7.30;0.82;;;;;;;;;;5010899;28;20037;-78
2022/09/07 05:56:06;;;;;;;0.08;0.08;;;;;;;;;;5017144;28;20113;-77
2022/09/07 05:58:33;;;;;;;0.00;0.00;;;;;;;;;;5011928;28;20029;-77
2022/09/07 06:01:01;;;;;;;3.15;2.45;;;;;;;;;;5008949;28;20399;-77
2022/09/07 06:03:27;;;;;;;0.08;0.08;;;;;;;;;;5018194;28;20037;-76
2022/09/07 06:06:04;;;;;;;0.70;0.70;;;;;;;;;;5015777;28;20484;-77
2022/09/07 06:08:31;;;;;;;2.72;1.15;;;;;;;;;;5014825;28;20033;-77
2022/09/07 06:10:57;;;;;;;0.00;0.00;;;;;;;;;;5013886;28;20447;-78
2022/09/07 06:13:24;;;;;;;0.77;0.77;;;;;;;;;;5015413;28;20030;-78
2022/09/07 06:15:50;;;;;;;1.10;1.02;;;;;;;;;;5042358;27;20063;-78
2022/09/07 06:18:17;;;;;;;4.00;2.17;;;;;;;;;;5030775;27;20030;-77
2022/09/07 06:20:44;;;;;;;0.35;0.28;;;;;;;;;;5029898;27;20033;-78
2022/09/07 06:23:10;;;;;;;0.00;0.00;;;;;;;;;;5036008;27;20029;-78
2022/09/07 06:25:36;;;;;;;2.55;1.75;;;;;;;;;;5045556;27;20052;-77
2022/09/07 06:28:03;;;;;;;2.45;1.10;;;;;;;;;;5041745;27;20044;-79
2022/09/07 06:30:29;;;;;;;0.63;0.63;;;;;;;;;;5055654;27;20028;-77
2022/09/07 06:32:56;;;;;;;3.15;1.65;;;;;;;;;;5051270;27;20460;-77
2022/09/07 06:35:22;;;;;;;0.22;0.22;;;;;;;;;;5043144;27;20446;-78
2022/09/07 06:37:48;;;;;;;0.00;0.00;;;;;;;;;;5017688;27;20467;-77
2022/09/07 06:40:15;;;;;;;0.03;0.03;;;;;;;;;;5033078;27;20052;-78
2022/09/07 06:42:41;;;;;;;0.63;0.63;;;;;;;;;;5029222;27;20294;-77
2022/09/07 06:45:09;;;;;;;1.88;1.77;;;;;;;;;;5048621;27;20044;-78
2022/09/07 06:47:36;;;;;;;0.90;0.55;;;;;;;;;;5039266;27;20555;-77
2022/09/07 06:50:02;;;;;;;1.17;0.30;;;;;;;;;;5055410;27;20034;-77
2022/09/07 06:52:29;;;;;;;0.32;0.30;;;;;;;;;;5033844;27;20049;-78
2022/09/07 06:54:55;;;;;;;0.20;0.03;;;;;;;;;;5037161;27;20121;-78
2022/09/07 06:57:21;;;;;;;0.22;0.22;;;;;;;;;;5050272;27;20032;-78
2022/09/07 06:59:48;;;;;;;0.45;0.45;;;;;;;;;;5032332;27;20034;-78
2022/09/07 07:02:14;;;;;;;0.00;0.00;;;;;;;;;;5028614;27;20026;-78
2022/09/07 07:04:40;;;;;;;4.18;1.40;;;;;;;;;;5034340;27;20048;-78
2022/09/07 07:07:11;;;;;;;0.00;0.00;;;;;;;;;;5040228;27;20037;-79
2022/09/07 07:09:37;;;;;;;2.45;1.30;;;;;;;;;;5039956;27;20041;-81
2022/09/07 07:12:04;;;;;;;4.95;1.40;;;;;;;;;;5050695;27;20471;-79
2022/09/07 07:14:30;;;;;;;1.42;0.60;;;;;;;;;;5060185;27;20542;-80
2022/09/07 07:16:56;;;;;;;0.10;0.10;;;;;;;;;;5019426;27;20386;-80
2022/09/07 07:19:23;;;;;;;0.17;0.17;;;;;;;;;;5050567;27;20109;-79
2022/09/07 07:21:49;;;;;;;4.07;1.15;;;;;;;;;;5048367;27;20079;-80
2022/09/07 07:24:15;;;;;;;3.92;1.75;;;;;;;;;;5040355;27;20034;-79
2022/09/07 07:26:47;;;;;;;0.73;0.73;;;;;;;;;;5041515;27;20050;-79
2022/09/07 07:29:13;;;;;;;0.35;0.13;;;;;;;;;;5022197;27;20422;-79
2022/09/07 07:31:40;;;;;;;0.17;0.17;;;;;;;;;;5029845;27;20467;-79
2022/09/07 07:34:07;;;;;;;0.20;0.20;;;;;;;;;;5019663;27;20034;-79
2022/09/07 07:36:34;;;;;;;0.00;0.00;;;;;;;;;;5031450;27;20030;-79
2022/09/07 07:39:00;;;;;;;0.00;0.00;;;;;;;;;;5005663;28;20026;-79
2022/09/07 07:41:30;;;;;;;0.00;0.00;;;;;;;;;;5052311;27;20063;-79
2022/09/07 07:43:58;;;;;;;0.85;0.60;;;;;;;;;;5039648;27;20025;-78
2022/09/07 07:46:27;;;;;;;1.27;1.17;;;;;;;;;;5037308;27;20034;-81
2022/09/07 07:48:53;;;;;;;0.00;0.00;;;;;;;;;;5015106;27;20030;-79
2022/09/07 07:51:20;;;;;;;2.80;1.85;;;;;;;;;;5026092;27;20025;-79
2022/09/07 07:53:46;;;;;;;0.73;0.73;;;;;;;;;;5030071;27;20022;-80
2022/09/07 07:56:13;;;;;;;0.43;0.43;;;;;;;;;;5038985;27;20030;-79
2022/09/07 07:58:43;;;;;;;0.00;0.00;;;;;;;;;;5042886;27;20357;-79
2022/09/07 08:01:11;;;;;;;0.20;0.20;;;;;;;;;;5036090;27;20539;-79
2022/09/07 08:03:39;;;;;;;0.00;0.00;;;;;;;;;;5031328;27;20454;-79
2022/09/07 08:06:20;;;;;;;0.00;0.00;;;;;;;;;;5021782;27;20417;-79
2022/09/07 08:08:47;;;;;;;0.00;0.00;;;;;;;;;;5021140;27;20042;-79
2022/09/07 08:11:19;;;;;;;0.00;0.00;;;;;;;;;;5011593;27;20457;-79
2022/09/07 08:13:48;;;;;;;5.78;1.17;;;;;;;;;;5021180;27;20115;-79
2022/09/07 08:16:15;;;;;;;2.03;0.75;;;;;;;;;;5016999;27;20029;-79
2022/09/07 08:18:42;;;;;;;2.22;1.33;;;;;;;;;;5014156;27;20013;-78
2022/09/07 08:21:11;;;;;;;0.00;0.00;;;;;;;;;;5011925;28;20120;-79
2022/09/07 08:23:37;;;;;;;0.70;0.35;;;;;;;;;;5017432;27;20033;-78
2022/09/07 08:26:04;;;;;;;0.28;0.28;;;;;;;;;;5008926;28;20070;-78
2022/09/07 08:28:33;;;;;;;0.93;0.45;;;;;;;;;;5025862;27;20061;-79
2022/09/07 08:30:59;;;;;;;0.22;0.22;;;;;;;;;;5024449;27;20057;-78
2022/09/07 08:33:26;;;;;;;2.70;2.50;;;;;;;;;;5019513;27;20060;-80
2022/09/07 08:36:15;;;;;;;0.30;0.30;;;;;;;;;;5042959;27;20371;-80
2022/09/07 08:38:42;;;;;;;0.20;0.20;;;;;;;;;;5033972;27;20169;-78
2022/09/07 08:41:17;;;;;;;0.20;0.17;;;;;;;;;;5041217;27;20099;-79
2022/09/07 08:43:53;;;;;;;0.30;0.30;;;;;;;;;;5037315;27;20294;-78
2022/09/07 08:46:44;;;;;;;1.35;1.25;;;;;;;;;;5027600;27;20045;-78
2022/09/07 08:49:20;;;;;;;1.42;1.33;;;;;;;;;;5036922;27;20026;-79
2022/09/07 08:51:53;;;;;;;0.80;0.80;;;;;;;;;;5034047;27;20114;-81
2022/09/07 08:54:19;;;;;;;0.00;0.00;;;;;;;;;;5047094;27;20462;-80
2022/09/07 08:56:48;;;;;;;0.00;0.00;;;;;;;;;;5050987;27;20487;-81
2022/09/07 08:59:33;;;;;;;0.20;0.20;;;;;;;;;;5022677;27;20034;-79
2022/09/07 09:01:59;;;;;;;4.65;2.47;;;;;;;;;;5008248;27;20026;-80
2022/09/07 09:04:29;;;;;;;0.10;0.10;;;;;;;;;;5018998;27;20038;-79
2022/09/07 09:07:28;;;;;;;0.00;0.00;;;;;;;;;;5015717;27;20506;-79
2022/09/07 09:10:11;;;;;;;0.20;0.20;;;;;;;;;;4991136;27;20070;-78
2022/09/07 09:12:54;;;;;;;0.00;0.00;;;;;;;;;;5034885;27;20027;-78
2022/09/07 09:15:25;;;;;;;0.00;0.00;;;;;;;;;;5030053;27;20026;-79
2022/09/07 09:17:57;;;;;;;0.00;0.00;;;;;;;;;;5048404;27;20121;-79
2022/09/07 09:20:28;;;;;;;0.00;0.00;;;;;;;;;;5037322;27;20030;-79
2022/09/07 09:22:57;;;;;;;4.57;1.48;;;;;;;;;;5012979;27;20018;-79
2022/09/07 09:25:46;;;;;;;1.38;0.63;;;;;;;;;;5027450;27;20486;-80
2022/09/07 09:28:13;;;;;;;0.30;0.30;;;;;;;;;;5040485;27;20078;-79
2022/09/07 09:30:39;;;;;;;30.75;0.88;;;;;;;;;;5022274;27;20033;-79
2022/09/07 09:33:13;;;;;;;1.10;1.05;;;;;;;;;;5026649;27;20462;-78
2022/09/07 09:35:40;;;;;;;11.07;1.98;;;;;;;;;;5031273;27;20035;-79
2022/09/07 09:38:29;;;;;;;0.35;0.35;;;;;;;;;;5026072;27;20527;-79
2022/09/07 09:40:57;;;;;;;1.02;0.68;;;;;;;;;;5024858;27;20411;-79
2022/09/07 09:43:32;;;;;;;0.22;0.22;;;;;;;;;;5040318;27;21622;-78
2022/09/07 09:45:58;;;;;;;0.15;0.15;;;;;;;;;;5030471;27;20035;-79
2022/09/07 09:48:34;;;;;;;0.05;0.05;;;;;;;;;;5046140;27;20031;-78
2022/09/07 09:51:02;;;;;;;0.00;0.00;;;;;;;;;;5026613;27;20101;-79
2022/09/07 09:53:33;;;;;;;0.10;0.10;;;;;;;;;;5021535;28;20034;-80
2022/09/07 09:56:01;;;;;;;0.10;0.10;;;;;;;;;;5025312;28;20019;-78
2022/09/07 09:58:30;;;;;;;0.93;0.20;;;;;;;;;;5011380;28;20030;-79
2022/09/07 10:01:01;;;;;;;0.55;0.38;;;;;;;;;;5010297;28;20018;-79
2022/09/07 10:03:28;;;;;;;0.00;0.00;;;;;;;;;;5013749;28;20105;-80
2022/09/07 10:05:54;;;;;;;0.45;0.45;;;;;;;;;;5026942;28;20345;-79
2022/09/07 10:08:20;;;;;;;1.23;1.17;;;;;;;;;;5027268;27;20128;-79
2022/09/07 10:10:51;;;;;;;0.00;0.00;;;;;;;;;;5014785;28;20021;-79
2022/09/07 10:13:26;;;;;;;0.00;0.00;;;;;;;;;;5012845;28;20386;-77
2022/09/07 10:15:57;;;;;;;0.17;0.17;;;;;;;;;;5016804;28;20116;-82
2022/09/07 10:18:34;;;;;;;3.38;3.20;;;;;;;;;;5018231;28;20064;-79
2022/09/07 10:21:23;;;;;;;1.52;1.42;;;;;;;;;;5010081;28;20029;-78
2022/09/07 10:23:52;;;;;;;0.75;0.75;;;;;;;;;;5017264;28;20117;-80
2022/09/07 10:26:20;;;;;;;0.35;0.32;;;;;;;;;;5001779;28;20130;-79
2022/09/07 10:28:46;;;;;;;2.08;1.98;;;;;;;;;;5017017;28;20029;-78
2022/09/07 10:31:30;;;;;;;0.98;0.98;;;;;;;;;;5021755;28;20355;-78
2022/09/07 10:34:07;;;;;;;0.00;0.00;;;;;;;;;;5016137;28;20033;-79
2022/09/07 10:36:40;;;;;;;0.47;0.32;;;;;;;;;;5024256;28;20187;-80
2022/09/07 10:39:11;;;;;;;0.20;0.20;;;;;;;;;;5021925;28;20045;-80
2022/09/07 10:41:43;;;;;;;0.00;0.00;;;;;;;;;;5010521;28;20137;-81
2022/09/07 10:44:15;;;;;;;0.00;0.00;;;;;;;;;;5010084;28;20026;-79
2022/09/07 10:47:05;;;;;;;0.00;0.00;;;;;;;;;;5035238;28;20038;-79
2022/09/07 10:49:42;;;;;;;0.00;0.00;;;;;;;;;;5015020;28;20033;-79
2022/09/07 10:52:08;;;;;;;1.75;0.95;;;;;;;;;;5016569;28;20030;-79
2022/09/07 10:54:44;;;;;;;0.00;0.00;;;;;;;;;;5016420;28;20109;-80
2022/09/07 10:57:16;;;;;;;2.25;1.60;;;;;;;;;;5012660;28;20027;-80
2022/09/07 10:59:54;;;;;;;0.05;0.05;;;;;;;;;;5013665;28;20163;-81
2022/09/07 11:02:21;;;;;;;0.15;0.15;;;;;;;;;;5019305;28;20112;-80
2022/09/07 11:05:11;;;;;;;0.65;0.47;;;;;;;;;;5044056;27;20051;-80
2022/09/07 11:07:50;;;;;;;0.00;0.00;;;;;;;;;;5023865;28;20086;-80
2022/09/07 11:10:25;;;;;;;0.00;0.00;;;;;;;;;;5030514;27;20034;-81
2022/09/07 11:12:54;;;;;;;0.00;0.00;;;;;;;;;;5035416;27;20428;-81
2022/09/07 11:15:26;;;;;;;0.22;0.15;;;;;;;;;;5017888;27;20475;-80
2022/09/07 11:17:55;;;;;;;0.65;0.65;;;;;;;;;;5013463;28;20421;-82
2022/09/07 11:20:28;;;;;;;0.00;0.00;;;;;;;;;;5030730;27;20461;-82
2022/09/07 11:23:12;;;;;;;0.08;0.08;;;;;;;;;;5039024;27;20018;-79
2022/09/07 11:25:56;;;;;;;0.00;0.00;;;;;;;;;;5030061;27;20070;-84
2022/09/07 11:28:26;;;;;;;0.00;0.00;;;;;;;;;;5030603;27;20542;-81
2022/09/07 11:30:57;;;;;;;4.78;4.57;;;;;;;;;;5028669;28;20066;-81
2022/09/07 11:33:23;;;;;;;0.00;0.00;;;;;;;;;;5019546;27;21789;-82
2022/09/07 11:35:53;;;;;;;0.08;0.08;;;;;;;;;;5026813;27;20029;-83
2022/09/07 11:38:24;;;;;;;0.00;0.00;;;;;;;;;;5029193;27;20025;-83
2022/09/07 11:41:17;;;;;;;0.00;0.00;;;;;;;;;;5025667;27;20103;-83
2022/09/07 11:43:45;;;;;;;0.00;0.00;;;;;;;;;;5021051;28;20038;-81
2022/09/07 11:46:26;;;;;;;0.45;0.45;;;;;;;;;;5021858;27;20022;-81
2022/09/07 11:48:54;;;;;;;0.00;0.00;;;;;;;;;;5030115;27;20414;-82
2022/09/07 11:51:20;;;;;;;0.85;0.85;;;;;;;;;;5043668;27;20526;-83
2022/09/07 11:53:50;;;;;;;0.10;0.10;;;;;;;;;;5030520;27;20121;-83
2022/09/07 11:56:35;;;;;;;0.00;0.00;;;;;;;;;;5019763;27;20034;-85
2022/09/07 11:59:20;;;;;;;0.00;0.00;;;;;;;;;;5017627;27;20071;-82
2022/09/07 12:02:00;;;;;;;0.05;0.05;;;;;;;;;;5025417;27;20033;-82
2022/09/07 12:05:02;;;;;;;0.00;0.00;;;;;;;;;;5040611;27;20018;-81
2022/09/07 12:07:41;;;;;;;0.00;0.00;;;;;;;;;;4960668;28;20042;-80
2022/09/07 12:10:28;;;;;;;0.00;0.00;;;;;;;;;;5012945;28;20120;-81
2022/09/07 12:13:04;;;;;;;0.00;0.00;;;;;;;;;;5023584;28;20046;-80
2022/09/07 12:15:51;;;;;;;0.00;0.00;;;;;;;;;;5020775;27;20160;-80
2022/09/07 12:18:26;;;;;;;0.00;0.00;;;;;;;;;;5019633;28;20727;-81
2022/09/07 12:20:53;;;;;;;0.00;0.00;;;;;;;;;;5018426;27;20034;-78
2022/09/07 12:23:42;;;;;;;0.00;0.00;;;;;;;;;;5022248;27;20022;-84
2022/09/07 12:26:27;;;;;;;17.05;15.60;;;;;;;;;;5022225;27;20049;-81
2022/09/07 12:29:04;;;;;;;0.00;0.00;;;;;;;;;;5030615;27;20101;-82
2022/09/07 12:31:47;;;;;;;0.10;0.10;;;;;;;;;;5027686;27;20059;-81
2022/09/07 12:34:32;;;;;;;0.00;0.00;;;;;;;;;;5047048;27;20210;-81
2022/09/07 12:36:59;;;;;;;0.00;0.00;;;;;;;;;;5060656;27;20015;-79
2022/09/07 12:39:28;;;;;;;0.00;0.00;;;;;;;;;;5045445;27;20057;-78
2022/09/07 12:42:06;;;;;;;0.00;0.00;;;;;;;;;;5028631;27;20371;-81
2022/09/07 12:44:34;;;;;;;0.00;0.00;;;;;;;;;;5021728;28;20108;-80
2022/09/07 12:47:02;;;;;;;0.00;0.00;;;;;;;;;;5017198;28;20492;-81
2022/09/07 12:49:40;;;;;;;0.00;0.00;;;;;;;;;;5017320;28;20025;-82
2022/09/07 12:52:17;;;;;;;0.00;0.00;;;;;;;;;;5025069;28;20064;-80
2022/09/07 12:54:58;;;;;;;0.00;0.00;;;;;;;;;;5022525;28;20029;-79
2022/09/07 12:57:31;;;;;;;0.00;0.00;;;;;;;;;;5029350;27;20133;-80
2022/09/07 13:00:10;;;;;;;0.00;0.00;;;;;;;;;;5018674;28;20021;-81
2022/09/07 13:03:03;;;;;;;0.00;0.00;;;;;;;;;;5021978;27;20059;-80
2022/09/07 13:05:44;;;;;;;0.00;0.00;;;;;;;;;;5022606;28;20050;-78
2022/09/07 13:08:29;;;;;;;0.00;0.00;;;;;;;;;;5021304;28;20026;-78
2022/09/07 13:10:56;;;;;;;0.00;0.00;;;;;;;;;;5021518;28;20029;-78
2022/09/07 13:13:28;;;;;;;0.00;0.00;;;;;;;;;;5015321;27;20486;-78
2022/09/07 13:16:01;;;;;;;0.00;0.00;;;;;;;;;;5015817;28;20036;-78
2022/09/07 13:18:28;;;;;;;0.00;0.00;;;;;;;;;;5014040;28;20022;-77
2022/09/07 13:21:06;;;;;;;0.00;0.00;;;;;;;;;;5014502;28;20022;-78
2022/09/07 13:23:37;;;;;;;0.00;0.00;;;;;;;;;;5019070;28;20057;-78
2022/09/07 13:26:05;;;;;;;0.20;0.20;;;;;;;;;;5012347;28;20038;-79
2022/09/07 13:28:36;;;;;;;0.10;0.10;;;;;;;;;;5019701;28;20420;-79
2022/09/07 13:31:21;;;;;;;0.00;0.00;;;;;;;;;;5018624;28;20030;-79
2022/09/07 13:33:49;;;;;;;0.10;0.10;;;;;;;;;;5028023;28;20034;-80
2022/09/07 13:36:24;;;;;;;1.35;1.35;;;;;;;;;;5014892;28;20029;-79
2022/09/07 13:38:51;;;;;;;0.00;0.00;;;;;;;;;;5024241;27;20108;-79
2022/09/07 13:41:19;;;;;;;0.00;0.00;;;;;;;;;;5019211;28;20029;-80
2022/09/07 13:43:47;;;;;;;0.00;0.00;;;;;;;;;;5024041;27;20486;-80
2022/09/07 13:46:27;;;;;;;0.00;0.00;;;;;;;;;;5017231;27;20038;-81
2022/09/07 13:48:57;;;;;;;0.00;0.00;;;;;;;;;;5058551;27;20499;-82
2022/09/07 13:51:37;;;;;;;0.77;0.77;;;;;;;;;;5019907;28;20022;-80
2022/09/07 13:54:22;;;;;;;0.00;0.00;;;;;;;;;;5014085;28;20026;-78
2022/09/07 13:56:58;;;;;;;0.00;0.00;;;;;;;;;;5016175;28;20068;-80
2022/09/07 13:59:29;;;;;;;0.32;0.32;;;;;;;;;;5063672;27;20049;-80
2022/09/07 14:01:57;;;;;;;0.20;0.20;;;;;;;;;;5040047;27;20019;-79
2022/09/07 14:04:34;;;;;;;57.00;35.80;;;;;;;;;;5049315;27;20037;-79
2022/09/07 14:07:05;;;;;;;0.00;0.00;;;;;;;;;;5034093;27;20022;-81
2022/09/07 14:09:32;;;;;;;0.95;0.95;;;;;;;;;;5060737;28;20383;-79
2022/09/07 14:11:59;;;;;;;0.75;0.75;;;;;;;;;;5052889;28;20074;-80
2022/09/07 14:14:32;;;;;;;0.00;0.00;;;;;;;;;;5060662;28;20516;-80
2022/09/07 14:17:05;;;;;;;0.00;0.00;;;;;;;;;;5045440;28;20372;-80
2022/09/07 14:19:38;;;;;;;0.00;0.00;;;;;;;;;;5052814;28;20026;-79
2022/09/07 14:22:07;;;;;;;0.00;0.00;;;;;;;;;;5036376;28;20029;-79
2022/09/07 14:24:36;;;;;;;0.10;0.10;;;;;;;;;;5074647;28;20031;-80
2022/09/07 14:27:03;;;;;;;0.00;0.00;;;;;;;;;;5061586;28;20436;-79
2022/09/07 14:29:31;;;;;;;10.02;9.65;;;;;;;;;;5063932;28;20026;-79
2022/09/07 14:31:58;;;;;;;0.10;0.10;;;;;;;;;;5078979;28;20032;-81
2022/09/07 14:34:26;;;;;;;0.00;0.00;;;;;;;;;;5058066;28;20023;-81
2022/09/07 14:36:53;;;;;;;0.00;0.00;;;;;;;;;;5064838;27;20456;-81
2022/09/07 14:39:21;;;;;;;0.00;0.00;;;;;;;;;;5074108;27;20026;-79
2022/09/07 14:41:48;;;;;;;0.00;0.00;;;;;;;;;;5031878;27;20022;-79
2022/09/07 14:44:35;;;;;;;0.20;0.20;;;;;;;;;;5025060;28;20022;-79
2022/09/07 14:47:06;;;;;;;0.00;0.00;;;;;;;;;;5019119;28;20371;-79
2022/09/07 14:49:33;;;;;;;0.00;0.00;;;;;;;;;;5019352;28;20467;-80
2022/09/07 14:52:00;;;;;;;0.00;0.00;;;;;;;;;;5017071;28;20088;-80
2022/09/07 14:54:31;;;;;;;0.00;0.00;;;;;;;;;;5021158;28;20112;-78
2022/09/07 14:57:02;;;;;;;0.00;0.00;;;;;;;;;;5074471;27;20074;-79
2022/09/07 14:59:45;;;;;;;0.00;0.00;;;;;;;;;;5033467;27;20491;-80
2022/09/07 15:02:17;;;;;;;4.53;3.47;;;;;;;;;;5059753;27;20420;-80
2022/09/07 15:04:44;;;;;;;0.00;0.00;;;;;;;;;;5062598;27;20033;-79